Strona główna
METAR-TAF:

METAR-TAF

Lotnisko :

Clearfield-Lawrence Airport

Clearfield, Pensylwania, Stany Zjednoczone

Szerokość geograficzna: 41-02-48N, Długość geograficzna: 078-24-42W, wysokość: 462 m

Aktualna obserwacja pogody

Raport powstał 22 minut temu, godzina 04:54 UTC
Wiatr 4 kt od zachód
Temperatura -2°C
Wilgotność 69%
Ciśnienie 1023 hPa
Widzialność: 16.1 km
Zachmurzenie całkowite na wysokości 4300 ft

METAR: KFIG 070454Z AUTO 27004KT 10SM OVC043 M02/M07 A3021 RMK AO2 SLP245 T10171072 400561039

czas: 00:16 (05:16 UTC)


TAF: brakujący

Obserwacja i prognoza pogody dla ponad 4000 lotnisk (raport METAR i TAF).

Dostępne stacje oznaczono żółtymi i czerwonymi punktami na mapie.

Najedź kursorem aby zobaczyć nazwę stacji.

Kliknij aby zobaczyć obserwacje i prognozy pogody.

Aby zmienić mapę: kliknij na zielony przycisk z czarnym krzyżykiem, aby powiększyć; na zielony przycisk z myślnikiem, aby pomniejszyć; na zielone strzałki, aby przejść do map sąsiednich.


METAR-TAF: